createdAt,value
2023-04-10T00:02:27.349Z,100829.78
2023-04-10T00:05:30.306Z,100828.34
2023-04-10T00:08:35.540Z,100822.34
2023-04-10T00:11:38.323Z,100822.41
2023-04-10T00:14:41.003Z,100823.31
2023-04-10T00:17:43.770Z,100819.94
2023-04-10T00:20:46.149Z,100825.22
2023-04-10T00:23:48.751Z,100821.75
2023-04-10T00:26:53.332Z,100813.13
2023-04-10T00:29:55.985Z,100816.69
2023-04-10T00:32:58.963Z,100818.53
2023-04-10T00:36:01.799Z,100813.37
2023-04-10T00:39:04.407Z,100820.37
2023-04-10T00:42:09.508Z,100815.03
2023-04-10T00:45:11.971Z,100803.06
2023-04-10T00:48:15.440Z,100811.44
2023-04-10T00:51:20.871Z,100801.34
2023-04-10T00:54:23.920Z,100803.88
2023-04-10T00:57:28.546Z,100800.28
2023-04-10T01:00:31.240Z,100792.34
2023-04-10T01:03:33.984Z,100793.22
2023-04-10T01:07:20.372Z,100794.59
2023-04-10T01:10:47.949Z,100790.81
2023-04-10T01:14:06.423Z,100791.38
2023-04-10T01:17:35.570Z,100783.28
2023-04-10T01:20:40.239Z,100785.59
2023-04-10T01:24:07.388Z,100778.50
2023-04-10T01:28:02.439Z,100791.06
2023-04-10T01:31:08.860Z,100788.56
2023-04-10T01:34:20.568Z,100786.75
2023-04-10T01:37:30.364Z,100787.03
2023-04-10T01:40:33.851Z,100780.88
2023-04-10T01:43:38.446Z,100782.69
2023-04-10T01:46:43.905Z,100783.31
2023-04-10T01:49:48.843Z,100778.00
2023-04-10T01:52:53.007Z,100776.19
2023-04-10T01:55:55.787Z,100781.09
2023-04-10T01:58:59.215Z,100776.91
2023-04-10T02:02:02.187Z,100767.41
2023-04-10T02:05:05.430Z,100779.16
2023-04-10T02:08:42.559Z,100774.12
2023-04-10T02:11:57.316Z,100773.63
2023-04-10T02:15:02.532Z,100772.75
2023-04-10T02:18:10.112Z,100770.50
2023-04-10T02:21:13.307Z,100775.66
2023-04-10T02:24:17.047Z,100768.69
2023-04-10T02:27:35.186Z,100769.25
2023-04-10T02:30:39.237Z,100764.94
2023-04-10T02:33:42.118Z,100767.06
2023-04-10T02:36:44.529Z,100756.47
2023-04-10T02:39:47.633Z,100764.28
2023-04-10T02:42:50.411Z,100763.50
2023-04-10T02:45:53.026Z,100754.81
2023-04-10T02:48:56.285Z,100751.75
2023-04-10T02:51:59.029Z,100752.94
2023-04-10T02:55:01.471Z,100751.63
2023-04-10T02:58:05.579Z,100754.91
2023-04-10T03:01:08.105Z,100747.25
2023-04-10T03:04:11.978Z,100746.59
2023-04-10T03:07:14.844Z,100738.06
2023-04-10T03:10:17.520Z,100736.38
2023-04-10T03:13:19.906Z,100734.06
2023-04-10T03:16:22.583Z,100743.91
2023-04-10T03:19:26.797Z,100739.00
2023-04-10T03:22:33.210Z,100746.81
2023-04-10T03:25:36.595Z,100746.25
2023-04-10T03:28:41.482Z,100747.22
2023-04-10T03:31:45.021Z,100739.50
2023-04-10T03:34:47.842Z,100743.88
2023-04-10T03:37:50.339Z,100744.81
2023-04-10T03:40:54.020Z,100742.69
2023-04-10T03:43:57.062Z,100751.72
2023-04-10T03:47:08.623Z,100746.63
2023-04-10T03:50:11.286Z,100745.37
2023-04-10T03:53:15.566Z,100754.97
2023-04-10T03:56:18.239Z,100751.06
2023-04-10T03:59:24.248Z,100760.34
2023-04-10T04:02:31.785Z,100751.19
2023-04-10T04:05:34.597Z,100754.41
2023-04-10T04:08:38.774Z,100756.16
2023-04-10T04:11:42.726Z,100761.41
2023-04-10T04:14:46.553Z,100754.41
2023-04-10T04:17:51.444Z,100763.78
2023-04-10T04:20:58.127Z,100763.84
2023-04-10T04:24:06.546Z,100764.72
2023-04-10T04:27:09.653Z,100768.72
2023-04-10T04:30:13.109Z,100767.69
2023-04-10T04:33:18.113Z,100762.53
2023-04-10T04:36:22.689Z,100772.56
2023-04-10T04:39:28.025Z,100772.41
2023-04-10T04:42:31.038Z,100772.91
2023-04-10T04:45:35.584Z,100780.16
2023-04-10T04:48:40.682Z,100780.69
2023-04-10T04:51:43.522Z,100781.75
2023-04-10T04:54:46.384Z,100780.38
2023-04-10T04:57:49.339Z,100785.59
2023-04-10T05:00:53.159Z,100785.19
2023-04-10T05:03:55.957Z,100787.88
2023-04-10T05:07:01.374Z,100774.78
2023-04-10T05:10:04.455Z,100780.38
2023-04-10T05:13:10.506Z,100775.94
2023-04-10T05:16:14.155Z,100777.75
2023-04-10T05:19:17.169Z,100779.44
2023-04-10T05:22:24.210Z,100782.28
2023-04-10T05:25:26.939Z,100787.84
2023-04-10T05:28:31.911Z,100785.50
2023-04-10T05:31:34.920Z,100783.97
2023-04-10T05:34:37.712Z,100791.88
2023-04-10T05:37:42.184Z,100792.03
2023-04-10T05:40:48.041Z,100792.87
2023-04-10T05:43:54.296Z,100783.34
2023-04-10T05:46:56.852Z,100791.88
2023-04-10T05:49:59.673Z,100782.53
2023-04-10T05:53:02.319Z,100780.59
2023-04-10T05:56:09.145Z,100785.19
2023-04-10T05:59:13.383Z,100779.25
2023-04-10T06:02:17.116Z,100786.03
2023-04-10T06:05:20.825Z,100781.94
2023-04-10T06:08:23.611Z,100786.00
2023-04-10T06:11:26.270Z,100782.28
2023-04-10T06:14:28.749Z,100787.44
2023-04-10T06:17:32.200Z,100789.81
2023-04-10T06:20:34.772Z,100784.75
2023-04-10T06:23:37.466Z,100786.75
2023-04-10T06:26:39.964Z,100795.56
2023-04-10T06:29:42.614Z,100787.66
2023-04-10T06:32:45.114Z,100793.31
2023-04-10T06:35:48.861Z,100792.28
2023-04-10T06:38:51.692Z,100783.19
2023-04-10T06:41:54.560Z,100787.28
2023-04-10T06:44:58.895Z,100790.47
2023-04-10T06:48:01.684Z,100786.84
2023-04-10T06:51:04.585Z,100790.19
2023-04-10T06:54:07.290Z,100792.03
2023-04-10T06:57:09.707Z,100786.81
2023-04-10T07:00:12.803Z,100793.66
2023-04-10T07:03:15.653Z,100792.00
2023-04-10T07:06:18.484Z,100790.94
2023-04-10T07:09:21.066Z,100792.81
2023-04-10T07:12:24.176Z,100793.50
2023-04-10T07:15:26.539Z,100798.25
2023-04-10T07:18:29.227Z,100798.59
2023-04-10T07:21:33.065Z,100798.50
2023-04-10T07:24:35.828Z,100800.81
2023-04-10T07:27:38.209Z,100800.81
2023-04-10T07:30:40.918Z,100807.88
2023-04-10T07:33:43.325Z,100814.44
2023-04-10T07:36:47.294Z,100812.16
2023-04-10T07:39:49.656Z,100814.16
2023-04-10T07:42:54.300Z,100814.03
2023-04-10T07:45:57.141Z,100812.72
2023-04-10T07:49:02.136Z,100808.84
2023-04-10T07:52:06.098Z,100816.37
2023-04-10T07:55:09.461Z,100812.50
2023-04-10T07:58:11.873Z,100810.00
2023-04-10T08:01:15.889Z,100807.28
2023-04-10T08:04:18.871Z,100810.13
2023-04-10T08:07:22.563Z,100817.50
2023-04-10T08:10:25.370Z,100815.06
2023-04-10T08:13:28.222Z,100812.66
2023-04-10T08:16:32.751Z,100820.41
2023-04-10T08:19:36.285Z,100819.22
2023-04-10T08:22:39.129Z,100814.16
2023-04-10T08:25:44.633Z,100825.19
2023-04-10T08:28:50.694Z,100816.19
2023-04-10T08:31:54.576Z,100813.88
2023-04-10T08:34:57.495Z,100808.56
2023-04-10T08:38:12.651Z,100807.66
2023-04-10T08:41:20.008Z,100810.75
2023-04-10T08:44:22.446Z,100805.59
2023-04-10T08:47:28.330Z,100808.53
2023-04-10T08:50:36.191Z,100795.12
2023-04-10T08:53:43.626Z,100804.69
2023-04-10T08:56:51.254Z,100807.59
2023-04-10T08:59:56.205Z,100796.94
2023-04-10T09:03:00.268Z,100800.28
2023-04-10T09:06:05.043Z,100794.84
2023-04-10T09:09:07.479Z,100788.19
2023-04-10T09:12:10.892Z,100791.25
2023-04-10T09:15:14.055Z,100795.56
2023-04-10T09:18:16.694Z,100786.03
2023-04-10T09:21:20.971Z,100783.22
2023-04-10T09:24:24.305Z,100790.59
2023-04-10T09:27:39.390Z,100786.28
2023-04-10T09:30:43.430Z,100780.88
2023-04-10T09:33:46.426Z,100779.31
2023-04-10T09:37:00.078Z,100770.28
2023-04-10T09:40:03.566Z,100770.28
2023-04-10T09:43:18.860Z,100775.81
2023-04-10T09:46:28.926Z,100770.59
2023-04-10T09:49:46.362Z,100771.81
2023-04-10T09:52:58.040Z,100758.91
2023-04-10T09:56:05.325Z,100758.06
2023-04-10T09:59:08.377Z,100760.62
2023-04-10T10:02:13.363Z,100755.91
2023-04-10T10:05:16.586Z,100745.34
2023-04-10T10:08:19.185Z,100742.25
2023-04-10T10:11:24.826Z,100742.69
2023-04-10T10:14:29.203Z,100744.75
2023-04-10T10:17:51.591Z,100741.06
2023-04-10T10:20:54.365Z,100737.41
2023-04-10T10:24:02.006Z,100740.16
2023-04-10T10:27:09.356Z,100738.72
2023-04-10T10:30:28.296Z,100734.88
2023-04-10T10:33:35.778Z,100730.16
2023-04-10T10:36:39.999Z,100730.62
2023-04-10T10:40:18.009Z,100717.75
2023-04-10T10:43:26.638Z,100726.81
2023-04-10T10:46:44.637Z,100726.91
2023-04-10T10:49:57.437Z,100722.19
2023-04-10T10:53:01.403Z,100721.34
2023-04-10T10:56:27.106Z,100719.31
2023-04-10T10:59:47.929Z,100720.56
2023-04-10T11:03:08.756Z,100715.94
2023-04-10T11:06:19.332Z,100719.56
2023-04-10T11:09:51.054Z,100711.59
2023-04-10T11:13:24.829Z,100718.47
2023-04-10T11:16:31.669Z,100718.22
2023-04-10T11:19:59.949Z,100713.50
2023-04-10T11:23:13.228Z,100719.06
2023-04-10T11:26:39.562Z,100715.13
2023-04-10T11:29:42.290Z,100708.34
2023-04-10T11:32:45.486Z,100707.53
2023-04-10T11:35:48.397Z,100701.97
2023-04-10T11:39:02.649Z,100704.81
2023-04-10T11:42:05.917Z,100698.97
2023-04-10T11:45:28.197Z,100695.66
2023-04-10T11:48:31.646Z,100693.56
2023-04-10T11:51:34.221Z,100696.50
2023-04-10T11:54:37.809Z,100694.16
2023-04-10T11:57:40.309Z,100692.28
2023-04-10T12:00:42.995Z,100682.50
2023-04-10T12:03:46.159Z,100685.03
2023-04-10T12:06:57.267Z,100681.59
2023-04-10T12:09:59.967Z,100684.87
2023-04-10T12:13:02.384Z,100674.97
2023-04-10T12:16:08.794Z,100666.03
2023-04-10T12:19:12.060Z,100663.00
2023-04-10T12:22:14.908Z,100661.06
2023-04-10T12:25:21.541Z,100660.91
2023-04-10T12:28:24.255Z,100653.78
2023-04-10T12:31:36.471Z,100655.78
2023-04-10T12:34:39.759Z,100648.28
2023-04-10T12:37:48.094Z,100646.72
2023-04-10T12:41:11.360Z,100641.38
2023-04-10T12:44:14.589Z,100635.00
2023-04-10T12:47:17.291Z,100635.38
2023-04-10T12:50:23.552Z,100629.87
2023-04-10T12:53:27.391Z,100624.19
2023-04-10T12:56:40.973Z,100620.69
2023-04-10T12:59:44.881Z,100619.19
2023-04-10T13:02:48.869Z,100607.47
2023-04-10T13:05:52.471Z,100616.75
2023-04-10T13:08:56.199Z,100609.75
2023-04-10T13:11:59.232Z,100608.31
2023-04-10T13:15:02.864Z,100609.94
2023-04-10T13:18:08.698Z,100605.72
2023-04-10T13:21:11.256Z,100605.16
2023-04-10T13:24:16.452Z,100593.81
2023-04-10T13:27:19.192Z,100593.28
2023-04-10T13:30:21.893Z,100596.03
2023-04-10T13:33:25.053Z,100585.81
2023-04-10T13:36:27.905Z,100589.41
2023-04-10T13:39:31.468Z,100588.56
2023-04-10T13:42:35.908Z,100583.31
2023-04-10T13:45:41.444Z,100577.78
2023-04-10T13:48:44.083Z,100571.97
2023-04-10T13:51:46.899Z,100561.94
2023-04-10T13:54:49.545Z,100557.81
2023-04-10T13:57:52.204Z,100557.97
2023-04-10T14:00:54.996Z,100554.28
2023-04-10T14:03:57.891Z,100552.03
2023-04-10T14:07:02.162Z,100552.31
2023-04-10T14:10:07.079Z,100552.91
2023-04-10T14:13:11.520Z,100546.91
2023-04-10T14:16:14.732Z,100543.06
2023-04-10T14:19:21.649Z,100538.56
2023-04-10T14:25:27.035Z,100526.62
2023-04-10T14:28:29.815Z,100515.69
2023-04-10T14:31:32.222Z,100513.56
2023-04-10T14:34:35.008Z,100510.41
2023-04-10T14:37:37.856Z,100509.75
2023-04-10T14:40:43.704Z,100506.00
2023-04-10T14:43:45.974Z,100503.78
2023-04-10T14:46:48.587Z,100516.44
2023-04-10T14:49:51.012Z,100503.19
2023-04-10T14:52:53.859Z,100506.97
2023-04-10T14:55:56.247Z,100500.16
2023-04-10T14:58:59.010Z,100500.88
2023-04-10T15:02:01.431Z,100496.12
2023-04-10T15:05:04.771Z,100505.34
2023-04-10T15:08:07.131Z,100495.78
2023-04-10T15:11:09.976Z,100499.19
2023-04-10T15:14:12.455Z,100492.25
2023-04-10T15:17:15.462Z,100493.00
2023-04-10T15:20:18.051Z,100497.97
2023-04-10T15:23:20.762Z,100496.91
2023-04-10T15:26:23.225Z,100496.66
2023-04-10T15:29:25.869Z,100491.47
2023-04-10T15:32:31.220Z,100484.75
2023-04-10T15:35:36.865Z,100487.94
2023-04-10T15:38:39.512Z,100477.44
2023-04-10T15:41:42.256Z,100477.84
2023-04-10T15:44:48.944Z,100469.94
2023-04-10T15:47:52.064Z,100471.09
2023-04-10T15:50:54.993Z,100465.91
2023-04-10T15:53:57.795Z,100466.97
2023-04-10T15:57:00.162Z,100471.97
2023-04-10T16:00:06.131Z,100460.94
2023-04-10T16:03:09.233Z,100462.12
2023-04-10T16:06:11.799Z,100459.41
2023-04-10T16:09:24.801Z,100455.94
2023-04-10T16:12:28.736Z,100456.12
2023-04-10T16:15:34.462Z,100442.97
2023-04-10T16:18:37.026Z,100445.53
2023-04-10T16:21:40.083Z,100449.28
2023-04-10T16:24:42.517Z,100441.47
2023-04-10T16:27:45.177Z,100440.31
2023-04-10T16:30:47.512Z,100439.38
2023-04-10T16:33:50.226Z,100439.88
2023-04-10T16:36:52.666Z,100446.44
2023-04-10T16:39:56.160Z,100449.28
2023-04-10T16:43:01.048Z,100441.91
2023-04-10T16:46:03.867Z,100447.75
2023-04-10T16:49:06.220Z,100446.44
2023-04-10T16:52:08.848Z,100435.41
2023-04-10T16:55:11.454Z,100436.50
2023-04-10T16:58:14.187Z,100436.97
2023-04-10T17:01:19.406Z,100435.50
2023-04-10T17:04:22.410Z,100426.59
2023-04-10T17:07:24.956Z,100434.91
2023-04-10T17:10:28.027Z,100432.28
2023-04-10T17:13:30.619Z,100432.16
2023-04-10T17:16:33.763Z,100429.19
2023-04-10T17:19:36.163Z,100434.38
2023-04-10T17:22:41.281Z,100427.00
2023-04-10T17:25:44.911Z,100428.88
2023-04-10T17:28:47.981Z,100428.88
2023-04-10T17:31:50.430Z,100428.66
2023-04-10T17:34:53.204Z,100434.72
2023-04-10T17:37:55.718Z,100429.50
2023-04-10T17:40:58.335Z,100428.53
2023-04-10T17:44:02.539Z,100430.53
2023-04-10T17:47:05.465Z,100427.00
2023-04-10T17:50:08.574Z,100428.06
2023-04-10T17:53:11.295Z,100433.50
2023-04-10T17:56:19.624Z,100425.78
2023-04-10T17:59:22.311Z,100438.97
2023-04-10T18:02:24.938Z,100437.50
2023-04-10T18:05:31.025Z,100430.75
2023-04-10T18:08:35.315Z,100438.81
2023-04-10T18:11:39.930Z,100440.94
2023-04-10T18:14:44.010Z,100441.75
2023-04-10T18:17:46.687Z,100439.97
2023-04-10T18:20:49.081Z,100438.22
2023-04-10T18:23:51.787Z,100438.09
2023-04-10T18:26:56.596Z,100441.63
2023-04-10T18:29:59.313Z,100434.63
2023-04-10T18:33:05.341Z,100430.50
2023-04-10T18:36:13.931Z,100438.31
2023-04-10T18:39:18.188Z,100434.88
2023-04-10T18:42:20.852Z,100436.87
2023-04-10T18:45:23.423Z,100432.31
2023-04-10T18:48:26.060Z,100434.16
2023-04-10T18:51:28.718Z,100430.69
2023-04-10T18:54:31.676Z,100430.72
2023-04-10T18:57:34.075Z,100433.25
2023-04-10T19:00:38.857Z,100430.59
2023-04-10T19:03:41.324Z,100430.59
2023-04-10T19:06:46.267Z,100432.34
2023-04-10T19:09:48.590Z,100427.69
2023-04-10T19:12:53.260Z,100423.53
2023-04-10T19:15:55.763Z,100426.06
2023-04-10T19:18:58.582Z,100423.16
2023-04-10T19:22:01.208Z,100420.84
2023-04-10T19:25:04.013Z,100420.44
2023-04-10T19:28:07.041Z,100418.28
2023-04-10T19:31:09.781Z,100424.84
2023-04-10T19:34:12.570Z,100418.06
2023-04-10T19:37:15.219Z,100409.31
2023-04-10T19:40:19.340Z,100410.69
2023-04-10T19:43:22.060Z,100409.84
2023-04-10T19:46:24.676Z,100417.44
2023-04-10T19:49:29.151Z,100414.13
2023-04-10T19:52:31.783Z,100408.56
2023-04-10T19:55:34.510Z,100407.88
2023-04-10T19:58:41.047Z,100412.22
2023-04-10T20:01:45.738Z,100404.91
2023-04-10T20:04:48.973Z,100406.66
2023-04-10T20:07:51.544Z,100409.78
2023-04-10T20:10:56.084Z,100405.59
2023-04-10T20:14:00.268Z,100406.22
2023-04-10T20:17:02.958Z,100410.16
2023-04-10T20:20:06.023Z,100407.81
2023-04-10T20:23:09.080Z,100408.22
2023-04-10T20:26:15.531Z,100412.25
2023-04-10T20:29:21.851Z,100405.69
2023-04-10T20:32:27.089Z,100406.00
2023-04-10T20:35:29.769Z,100410.97
2023-04-10T20:38:32.192Z,100401.22
2023-04-10T20:41:34.874Z,100396.91
2023-04-10T20:44:37.912Z,100391.25
2023-04-10T20:47:40.791Z,100397.69
2023-04-10T20:50:46.763Z,100396.63
2023-04-10T20:53:49.454Z,100397.78
2023-04-10T20:56:53.158Z,100397.91
2023-04-10T20:59:57.419Z,100395.53
2023-04-10T21:03:00.089Z,100392.94
2023-04-10T21:06:04.321Z,100387.25
2023-04-10T21:09:06.752Z,100393.47
2023-04-10T21:12:09.443Z,100386.00
2023-04-10T21:15:17.004Z,100383.84
2023-04-10T21:18:20.252Z,100378.66
2023-04-10T21:21:22.800Z,100377.00
2023-04-10T21:24:25.986Z,100378.66
2023-04-10T21:27:30.225Z,100384.22
2023-04-10T21:30:32.914Z,100381.97
2023-04-10T21:33:35.497Z,100379.56
2023-04-10T21:36:38.859Z,100374.47
2023-04-10T21:39:41.705Z,100376.69
2023-04-10T21:42:44.346Z,100373.38
2023-04-10T21:45:46.867Z,100367.62
2023-04-10T21:48:49.527Z,100370.50
2023-04-10T21:51:51.903Z,100361.25
2023-04-10T21:54:54.624Z,100357.25
2023-04-10T21:57:57.449Z,100356.69
2023-04-10T22:01:02.115Z,100356.97
2023-04-10T22:04:08.078Z,100359.09
2023-04-10T22:07:10.521Z,100352.16
2023-04-10T22:10:14.657Z,100350.81
2023-04-10T22:13:29.788Z,100346.72
2023-04-10T22:16:33.320Z,100339.22
2023-04-10T22:19:35.750Z,100340.56
2023-04-10T22:22:38.430Z,100331.66
2023-04-10T22:25:40.846Z,100340.38
2023-04-10T22:28:43.557Z,100338.69
2023-04-10T22:31:46.448Z,100329.25
2023-04-10T22:34:49.102Z,100327.50
2023-04-10T22:37:51.568Z,100326.88
2023-04-10T22:40:55.148Z,100320.00
2023-04-10T22:43:57.713Z,100318.97
2023-04-10T22:47:00.418Z,100320.31
2023-04-10T22:50:03.971Z,100321.06
2023-04-10T22:53:06.765Z,100317.16
2023-04-10T22:56:10.543Z,100314.44
2023-04-10T22:59:13.186Z,100317.47
2023-04-10T23:02:15.735Z,100314.50
2023-04-10T23:05:18.416Z,100315.75
2023-04-10T23:08:23.139Z,100313.69
2023-04-10T23:11:25.796Z,100308.09
2023-04-10T23:14:28.283Z,100307.47
2023-04-10T23:17:31.016Z,100307.91
2023-04-10T23:20:33.430Z,100305.81
2023-04-10T23:23:36.081Z,100308.09
2023-04-10T23:26:38.422Z,100303.75
2023-04-10T23:29:41.033Z,100292.28
2023-04-10T23:32:43.357Z,100293.03
2023-04-10T23:35:46.170Z,100292.19
2023-04-10T23:38:48.659Z,100278.38
2023-04-10T23:41:53.575Z,100281.91
2023-04-10T23:44:56.120Z,100282.94
2023-04-10T23:47:58.884Z,100278.88
2023-04-10T23:51:05.964Z,100279.94
2023-04-10T23:54:08.601Z,100282.72
2023-04-10T23:57:11.037Z,100277.97
